createdAt,value
2023-07-25T00:01:11.862Z,17.03
2023-07-25T00:03:38.850Z,16.97
2023-07-25T00:06:06.116Z,16.94
2023-07-25T00:08:33.701Z,16.85
2023-07-25T00:11:01.442Z,16.77
2023-07-25T00:13:28.956Z,16.91
2023-07-25T00:15:56.265Z,16.79
2023-07-25T00:18:25.052Z,16.64
2023-07-25T00:20:51.955Z,16.67
2023-07-25T00:23:18.821Z,16.65
2023-07-25T00:25:45.836Z,16.69
2023-07-25T00:28:12.864Z,16.75
2023-07-25T00:30:39.946Z,16.59
2023-07-25T00:33:07.571Z,16.68
2023-07-25T00:35:34.699Z,16.54
2023-07-25T00:38:04.185Z,16.62
2023-07-25T00:40:31.225Z,16.59
2023-07-25T00:42:58.122Z,16.76
2023-07-25T00:45:25.603Z,16.66
2023-07-25T00:47:53.925Z,16.75
2023-07-25T00:50:21.373Z,16.68
2023-07-25T00:52:48.927Z,16.74
2023-07-25T00:55:17.486Z,16.88
2023-07-25T00:57:44.426Z,16.74
2023-07-25T01:00:12.405Z,16.75
2023-07-25T01:02:39.597Z,16.88
2023-07-25T01:05:06.829Z,16.85
2023-07-25T01:07:34.627Z,16.90
2023-07-25T01:10:01.797Z,17.03
2023-07-25T01:12:28.789Z,17.01
2023-07-25T01:14:55.975Z,16.98
2023-07-25T01:17:25.312Z,17.00
2023-07-25T01:19:53.449Z,16.99
2023-07-25T01:22:22.915Z,17.13
2023-07-25T01:24:51.137Z,17.04
2023-07-25T01:27:18.653Z,17.10
2023-07-25T01:29:45.870Z,17.14
2023-07-25T01:32:12.929Z,17.11
2023-07-25T01:34:40.153Z,17.32
2023-07-25T01:37:07.992Z,17.23
2023-07-25T01:39:35.146Z,17.27
2023-07-25T01:42:02.309Z,17.33
2023-07-25T01:44:29.275Z,17.18
2023-07-25T01:46:56.845Z,17.45
2023-07-25T01:49:23.908Z,17.58
2023-07-25T01:51:50.937Z,17.63
2023-07-25T01:54:18.162Z,17.83
2023-07-25T01:56:48.899Z,17.94
2023-07-25T01:59:18.165Z,17.97
2023-07-25T02:01:45.236Z,18.03
2023-07-25T02:04:12.271Z,17.95
2023-07-25T02:06:39.288Z,17.88
2023-07-25T02:09:06.307Z,17.99
2023-07-25T02:11:33.458Z,17.79
2023-07-25T02:14:00.851Z,17.91
2023-07-25T02:16:27.742Z,18.01
2023-07-25T02:18:54.827Z,18.00
2023-07-25T02:21:21.810Z,18.04
2023-07-25T02:23:48.977Z,18.08
2023-07-25T02:26:15.821Z,18.10
2023-07-25T02:28:42.869Z,18.29
2023-07-25T02:31:09.981Z,18.23
2023-07-25T02:33:36.931Z,18.35
2023-07-25T02:36:04.285Z,18.30
2023-07-25T02:38:31.363Z,18.33
2023-07-25T02:40:58.370Z,18.46
2023-07-25T02:43:27.330Z,18.51
2023-07-25T02:45:54.400Z,18.60
2023-07-25T02:48:21.461Z,18.65
2023-07-25T02:50:48.430Z,18.82
2023-07-25T02:53:15.399Z,18.91
2023-07-25T02:55:42.607Z,18.92
2023-07-25T02:58:09.745Z,19.01
2023-07-25T03:00:36.694Z,19.10
2023-07-25T03:03:03.811Z,19.06
2023-07-25T03:05:30.877Z,19.06
2023-07-25T03:07:58.373Z,19.20
2023-07-25T03:10:25.337Z,19.31
2023-07-25T03:12:52.373Z,19.23
2023-07-25T03:15:20.247Z,19.28
2023-07-25T03:17:47.286Z,19.36
2023-07-25T03:20:14.365Z,19.38
2023-07-25T03:22:41.525Z,19.26
2023-07-25T03:25:09.047Z,19.14
2023-07-25T03:27:36.896Z,19.12
2023-07-25T03:30:04.141Z,19.05
2023-07-25T03:32:31.121Z,19.20
2023-07-25T03:34:58.072Z,19.14
2023-07-25T03:37:25.052Z,19.22
2023-07-25T03:39:52.074Z,19.23
2023-07-25T03:42:19.260Z,19.38
2023-07-25T03:44:46.297Z,19.51
2023-07-25T03:47:13.322Z,19.73
2023-07-25T03:49:40.457Z,19.95
2023-07-25T03:52:07.748Z,20.33
2023-07-25T03:54:34.647Z,20.42
2023-07-25T03:57:01.728Z,20.15
2023-07-25T03:59:28.878Z,20.23
2023-07-25T04:01:55.916Z,20.31
2023-07-25T04:04:23.054Z,20.50
2023-07-25T04:06:50.074Z,20.38
2023-07-25T04:09:17.053Z,20.50
2023-07-25T04:11:44.219Z,20.60
2023-07-25T04:14:11.087Z,20.63
2023-07-25T04:16:38.312Z,20.59
2023-07-25T04:19:05.275Z,20.62
2023-07-25T04:21:32.541Z,20.65
2023-07-25T04:23:59.599Z,20.55
2023-07-25T04:26:26.663Z,20.39
2023-07-25T04:28:53.689Z,20.20
2023-07-25T04:31:20.787Z,19.94
2023-07-25T04:33:47.789Z,19.80
2023-07-25T04:36:15.040Z,19.61
2023-07-25T04:38:41.951Z,19.63
2023-07-25T04:41:09.091Z,19.55
2023-07-25T04:43:36.011Z,19.75
2023-07-25T04:46:03.040Z,19.88
2023-07-25T04:48:29.997Z,19.87
2023-07-25T04:50:56.924Z,19.95
2023-07-25T04:53:23.862Z,19.69
2023-07-25T04:55:50.857Z,20.00
2023-07-25T04:58:17.829Z,19.99
2023-07-25T05:00:44.758Z,19.90
2023-07-25T05:03:11.988Z,19.78
2023-07-25T05:05:39.116Z,19.85
2023-07-25T05:08:06.042Z,19.77
2023-07-25T05:10:33.122Z,19.74
2023-07-25T05:12:59.992Z,19.79
2023-07-25T05:15:26.954Z,19.76
2023-07-25T05:17:54.037Z,19.88
2023-07-25T05:20:20.972Z,19.91
2023-07-25T05:22:47.947Z,19.99
2023-07-25T05:25:15.066Z,19.84
2023-07-25T05:27:41.969Z,19.70
2023-07-25T05:30:09.157Z,19.40
2023-07-25T05:32:37.676Z,19.38
2023-07-25T05:35:05.912Z,19.44
2023-07-25T05:37:37.672Z,19.40
2023-07-25T05:40:05.258Z,19.13
2023-07-25T05:42:32.578Z,19.09
2023-07-25T05:45:00.579Z,19.08
2023-07-25T05:47:29.156Z,18.96
2023-07-25T05:49:58.404Z,18.95
2023-07-25T05:52:25.492Z,18.91
2023-07-25T05:54:52.372Z,19.07
2023-07-25T05:57:19.260Z,19.25
2023-07-25T05:59:46.235Z,19.05
2023-07-25T06:02:13.186Z,19.13
2023-07-25T06:04:40.045Z,19.12
2023-07-25T06:07:07.685Z,18.73
2023-07-25T06:09:34.592Z,18.86
2023-07-25T06:12:01.526Z,18.89
2023-07-25T06:14:28.654Z,18.95
2023-07-25T06:16:55.558Z,19.11
2023-07-25T06:19:22.498Z,19.19
2023-07-25T06:21:49.906Z,19.25
2023-07-25T06:24:17.268Z,19.11
2023-07-25T06:26:44.495Z,19.27
2023-07-25T06:29:11.437Z,19.12
2023-07-25T06:31:38.524Z,19.11
2023-07-25T06:34:05.467Z,18.94
2023-07-25T06:36:32.363Z,19.28
2023-07-25T06:38:59.366Z,19.37
2023-07-25T06:41:26.335Z,19.57
2023-07-25T06:43:58.760Z,19.65
2023-07-25T06:46:25.766Z,19.96
2023-07-25T06:48:53.358Z,20.06
2023-07-25T06:51:21.555Z,20.23
2023-07-25T06:53:48.674Z,20.37
2023-07-25T06:56:15.686Z,20.30
2023-07-25T06:58:42.618Z,20.43
2023-07-25T07:01:09.714Z,20.69
2023-07-25T07:03:36.726Z,20.76
2023-07-25T07:06:03.834Z,20.50
2023-07-25T07:08:30.780Z,20.85
2023-07-25T07:10:57.874Z,20.99
2023-07-25T07:13:25.079Z,21.06
2023-07-25T07:15:52.335Z,21.14
2023-07-25T07:18:19.249Z,21.01
2023-07-25T07:20:48.506Z,21.19
2023-07-25T07:23:16.376Z,21.26
2023-07-25T07:25:45.017Z,21.41
2023-07-25T07:28:12.478Z,21.69
2023-07-25T07:30:39.795Z,21.53
2023-07-25T07:33:06.707Z,21.62
2023-07-25T07:35:33.691Z,21.79
2023-07-25T07:38:00.595Z,21.68
2023-07-25T07:40:27.666Z,22.07
2023-07-25T07:42:54.832Z,22.44
2023-07-25T07:45:21.755Z,22.97
2023-07-25T07:47:48.665Z,22.84
2023-07-25T07:50:15.685Z,23.10
2023-07-25T07:52:44.471Z,23.27
2023-07-25T07:55:12.219Z,23.08
2023-07-25T07:57:48.496Z,23.18
2023-07-25T08:00:16.539Z,23.27
2023-07-25T08:02:46.072Z,23.44
2023-07-25T08:05:13.879Z,23.52
2023-07-25T08:07:41.789Z,23.83
2023-07-25T08:10:09.245Z,23.75
2023-07-25T08:12:36.304Z,24.16
2023-07-25T08:15:03.886Z,24.02
2023-07-25T08:17:30.955Z,24.06
2023-07-25T08:19:58.019Z,24.31
2023-07-25T08:22:24.885Z,24.69
2023-07-25T08:24:54.008Z,24.70
2023-07-25T08:27:21.295Z,24.55
2023-07-25T08:29:48.331Z,24.65
2023-07-25T08:32:15.509Z,24.69
2023-07-25T08:34:42.742Z,25.06
2023-07-25T08:37:09.941Z,25.27
2023-07-25T08:39:36.900Z,25.19
2023-07-25T08:42:07.020Z,25.36
2023-07-25T08:44:35.292Z,25.59
2023-07-25T08:47:06.555Z,25.65
2023-07-25T08:49:36.947Z,25.78
2023-07-25T08:52:04.916Z,25.66
2023-07-25T08:54:34.668Z,25.05
2023-07-25T08:57:02.333Z,25.18
2023-07-25T08:59:29.386Z,25.23
2023-07-25T09:01:57.101Z,25.91
2023-07-25T09:04:26.773Z,25.76
2023-07-25T09:06:54.318Z,25.80
2023-07-25T09:09:21.276Z,26.00
2023-07-25T09:11:48.857Z,26.16
2023-07-25T09:14:15.952Z,26.33
2023-07-25T09:16:42.954Z,26.40
2023-07-25T09:19:10.581Z,26.81
2023-07-25T09:21:51.580Z,27.11
2023-07-25T09:24:18.694Z,26.98
2023-07-25T09:26:52.964Z,26.93
2023-07-25T09:29:20.108Z,26.62
2023-07-25T09:31:47.798Z,26.36
2023-07-25T09:34:16.996Z,26.46
2023-07-25T09:36:48.221Z,26.48
2023-07-25T09:39:16.560Z,26.90
2023-07-25T09:41:43.906Z,26.93
2023-07-25T09:44:10.968Z,27.01
2023-07-25T09:46:38.287Z,27.21
2023-07-25T09:49:05.623Z,27.35
2023-07-25T09:51:32.848Z,27.46
2023-07-25T09:53:59.857Z,27.64
2023-07-25T09:56:27.666Z,27.41
2023-07-25T10:01:25.559Z,27.63
2023-07-25T10:03:53.747Z,27.56
2023-07-25T10:06:21.967Z,27.31
2023-07-25T10:08:49.029Z,27.50
2023-07-25T10:11:17.284Z,27.41
2023-07-25T10:13:45.225Z,27.34
2023-07-25T10:16:12.878Z,27.34
2023-07-25T10:18:39.858Z,27.31
2023-07-25T10:21:09.438Z,27.12
2023-07-25T10:23:36.855Z,27.02
2023-07-25T10:26:14.586Z,26.88
2023-07-25T10:28:41.951Z,26.85
2023-07-25T10:31:21.217Z,26.80
2023-07-25T10:33:54.073Z,26.97
2023-07-25T10:36:24.734Z,27.12
2023-07-25T10:38:52.429Z,27.08
2023-07-25T10:41:19.740Z,27.11
2023-07-25T10:43:46.583Z,27.02
2023-07-25T10:46:35.043Z,27.03
2023-07-25T10:49:04.036Z,26.39
2023-07-25T10:52:06.752Z,27.17
2023-07-25T10:54:33.876Z,27.13
2023-07-25T10:57:19.100Z,27.33
2023-07-25T10:59:58.090Z,27.35
2023-07-25T11:02:41.275Z,27.48
2023-07-25T11:05:14.640Z,27.54
2023-07-25T11:07:50.562Z,27.57
2023-07-25T11:10:21.578Z,27.59
2023-07-25T11:12:54.504Z,27.49
2023-07-25T11:15:40.273Z,27.80
2023-07-25T11:18:09.083Z,27.90
2023-07-25T11:20:36.152Z,27.75
2023-07-25T11:23:03.160Z,27.82
2023-07-25T11:25:30.222Z,27.58
2023-07-25T11:27:57.195Z,27.75
2023-07-25T11:30:24.092Z,28.09
2023-07-25T11:32:53.268Z,28.13
2023-07-25T11:35:21.118Z,27.85
2023-07-25T11:37:49.928Z,28.13
2023-07-25T11:40:19.617Z,27.96
2023-07-25T11:42:48.609Z,27.71
2023-07-25T11:45:16.979Z,27.62
2023-07-25T11:47:48.255Z,27.43
2023-07-25T11:50:25.834Z,27.45
2023-07-25T11:52:56.431Z,27.21
2023-07-25T11:55:23.758Z,27.23
2023-07-25T11:57:50.868Z,27.22
2023-07-25T12:00:18.078Z,27.29
2023-07-25T12:02:45.469Z,27.32
2023-07-25T12:05:32.368Z,27.53
2023-07-25T12:07:59.947Z,27.72
2023-07-25T12:10:28.490Z,27.61
2023-07-25T12:12:56.437Z,27.78
2023-07-25T12:15:25.021Z,27.73
2023-07-25T12:17:52.102Z,27.26
2023-07-25T12:20:20.661Z,27.27
2023-07-25T12:22:48.272Z,27.21
2023-07-25T12:25:19.372Z,27.26
2023-07-25T12:27:50.128Z,27.37
2023-07-25T12:30:17.647Z,27.26
2023-07-25T12:32:44.837Z,27.34
2023-07-25T12:35:11.910Z,27.39
2023-07-25T12:37:39.099Z,27.64
2023-07-25T12:40:06.819Z,27.39
2023-07-25T12:42:33.801Z,27.31
2023-07-25T12:45:00.724Z,27.46
2023-07-25T12:47:27.671Z,27.37
2023-07-25T12:49:54.709Z,27.19
2023-07-25T12:52:21.581Z,27.06
2023-07-25T12:54:48.445Z,26.82
2023-07-25T12:57:15.396Z,26.85
2023-07-25T12:59:42.243Z,26.75
2023-07-25T13:02:09.334Z,26.76
2023-07-25T13:04:36.384Z,26.85
2023-07-25T13:07:03.433Z,26.95
2023-07-25T13:09:30.300Z,27.03
2023-07-25T13:11:57.260Z,27.14
2023-07-25T13:14:24.395Z,27.14
2023-07-25T13:16:51.375Z,27.00
2023-07-25T13:19:18.250Z,27.20
2023-07-25T13:21:47.324Z,27.43
2023-07-25T13:24:14.492Z,27.22
2023-07-25T13:26:41.517Z,27.33
2023-07-25T13:29:08.383Z,27.46
2023-07-25T13:31:35.226Z,27.56
2023-07-25T13:34:02.372Z,27.51
2023-07-25T13:36:29.249Z,27.67
2023-07-25T13:38:56.150Z,27.46
2023-07-25T13:41:23.058Z,27.47
2023-07-25T13:43:49.915Z,27.13
2023-07-25T13:46:16.980Z,27.01
2023-07-25T13:48:44.008Z,26.92
2023-07-25T13:51:10.966Z,26.95
2023-07-25T13:53:37.826Z,26.94
2023-07-25T13:56:05.363Z,26.72
2023-07-25T13:58:32.359Z,26.51
2023-07-25T14:00:59.333Z,26.56
2023-07-25T14:03:27.614Z,26.47
2023-07-25T14:05:55.861Z,26.47
2023-07-25T14:08:22.941Z,26.45
2023-07-25T14:10:49.991Z,26.38
2023-07-25T14:13:16.918Z,26.27
2023-07-25T14:15:43.921Z,26.48
2023-07-25T14:18:10.904Z,26.39
2023-07-25T14:20:37.841Z,26.42
2023-07-25T14:23:04.728Z,26.46
2023-07-25T14:25:31.650Z,26.41
2023-07-25T14:27:58.581Z,26.61
2023-07-25T14:30:25.641Z,26.88
2023-07-25T14:32:52.520Z,26.99
2023-07-25T14:35:19.497Z,27.09
2023-07-25T14:37:55.997Z,27.03
2023-07-25T14:40:24.680Z,27.14
2023-07-25T14:42:51.952Z,27.05
2023-07-25T14:45:19.236Z,26.91
2023-07-25T14:47:46.317Z,26.75
2023-07-25T14:50:13.691Z,27.04
2023-07-25T14:52:40.635Z,26.97
2023-07-25T14:55:07.952Z,26.91
2023-07-25T14:57:34.824Z,26.88
2023-07-25T15:00:01.838Z,27.03
2023-07-25T15:02:28.962Z,26.75
2023-07-25T15:04:56.010Z,26.89
2023-07-25T15:07:22.940Z,26.62
2023-07-25T15:09:50.220Z,26.57
2023-07-25T15:12:17.271Z,26.65
2023-07-25T15:14:44.217Z,26.72
2023-07-25T15:17:22.586Z,26.51
2023-07-25T15:20:01.693Z,26.52
2023-07-25T15:22:29.044Z,26.32
2023-07-25T15:24:56.575Z,26.34
2023-07-25T15:27:24.217Z,26.36
2023-07-25T15:29:51.597Z,26.31
2023-07-25T15:32:18.656Z,26.31
2023-07-25T15:34:45.652Z,26.19
2023-07-25T15:37:13.036Z,26.03
2023-07-25T15:39:39.985Z,26.01
2023-07-25T15:42:07.791Z,25.92
2023-07-25T15:44:34.755Z,25.74
2023-07-25T15:47:02.327Z,25.76
2023-07-25T15:49:29.597Z,25.73
2023-07-25T15:51:57.429Z,25.67
2023-07-25T15:54:24.351Z,25.68
2023-07-25T15:56:51.341Z,25.56
2023-07-25T15:59:18.283Z,25.63
2023-07-25T16:01:45.606Z,25.46
2023-07-25T16:04:12.558Z,25.48
2023-07-25T16:06:39.562Z,25.48
2023-07-25T16:09:06.444Z,25.29
2023-07-25T16:11:34.092Z,25.35
2023-07-25T16:14:01.476Z,25.21
2023-07-25T16:16:28.494Z,25.19
2023-07-25T16:18:55.377Z,25.10
2023-07-25T16:21:22.375Z,25.01
2023-07-25T16:23:49.401Z,24.85
2023-07-25T16:26:17.090Z,24.93
2023-07-25T16:28:44.120Z,24.92
2023-07-25T16:31:29.041Z,24.74
2023-07-25T16:33:58.176Z,24.76
2023-07-25T16:36:25.283Z,24.66
2023-07-25T16:38:53.703Z,24.54
2023-07-25T16:41:20.675Z,24.39
2023-07-25T16:43:47.741Z,24.19
2023-07-25T16:46:15.358Z,24.21
2023-07-25T16:48:42.474Z,24.21
2023-07-25T16:51:09.402Z,24.18
2023-07-25T16:53:36.487Z,24.11
2023-07-25T16:56:03.587Z,24.01
2023-07-25T16:58:30.537Z,23.87
2023-07-25T17:00:57.492Z,23.87
2023-07-25T17:03:25.203Z,23.85
2023-07-25T17:05:52.203Z,23.79
2023-07-25T17:08:20.407Z,23.77
2023-07-25T17:10:47.973Z,23.70
2023-07-25T17:13:15.150Z,23.65
2023-07-25T17:15:42.883Z,23.56
2023-07-25T17:18:10.102Z,23.44
2023-07-25T17:20:36.978Z,23.44
2023-07-25T17:23:04.458Z,23.34
2023-07-25T17:25:31.542Z,23.31
2023-07-25T17:27:58.557Z,23.20
2023-07-25T17:30:25.499Z,23.29
2023-07-25T17:32:52.597Z,23.24
2023-07-25T17:35:31.634Z,23.17
2023-07-25T17:38:03.233Z,23.20
2023-07-25T17:40:30.699Z,23.14
2023-07-25T17:42:57.829Z,23.06
2023-07-25T17:45:24.808Z,23.06
2023-07-25T17:47:51.862Z,23.13
2023-07-25T17:50:18.889Z,23.09
2023-07-25T17:52:45.789Z,23.20
2023-07-25T17:55:12.690Z,23.08
2023-07-25T17:57:39.671Z,23.15
2023-07-25T18:00:07.305Z,23.15
2023-07-25T18:02:39.420Z,22.83
2023-07-25T18:05:06.831Z,22.95
2023-07-25T18:07:33.842Z,22.87
2023-07-25T18:10:00.851Z,22.81
2023-07-25T18:12:27.797Z,22.91
2023-07-25T18:14:54.925Z,22.91
2023-07-25T18:17:22.458Z,22.75
2023-07-25T18:19:49.522Z,22.71
2023-07-25T18:22:16.645Z,22.66
2023-07-25T18:24:43.681Z,22.75
2023-07-25T18:27:10.705Z,22.74
2023-07-25T18:29:37.759Z,22.79
2023-07-25T18:32:05.177Z,22.74
2023-07-25T18:34:32.378Z,22.74
2023-07-25T18:36:59.313Z,22.69
2023-07-25T18:39:26.352Z,22.63
2023-07-25T18:41:53.311Z,22.58
2023-07-25T18:44:20.357Z,22.48
2023-07-25T18:46:47.365Z,22.51
2023-07-25T18:49:14.407Z,22.43
2023-07-25T18:51:41.420Z,22.47
2023-07-25T18:54:08.780Z,22.32
2023-07-25T18:56:35.790Z,22.45
2023-07-25T18:59:02.780Z,22.30
2023-07-25T19:01:29.788Z,22.06
2023-07-25T19:03:58.629Z,22.29
2023-07-25T19:06:25.952Z,22.19
2023-07-25T19:08:53.975Z,22.17
2023-07-25T19:11:20.924Z,22.16
2023-07-25T19:13:47.888Z,22.17
2023-07-25T19:16:14.802Z,22.14
2023-07-25T19:18:41.861Z,22.10
2023-07-25T19:21:08.795Z,22.03
2023-07-25T19:23:35.844Z,21.91
2023-07-25T19:26:02.933Z,21.94
2023-07-25T19:28:30.031Z,21.97
2023-07-25T19:30:58.653Z,21.97
2023-07-25T19:33:26.671Z,21.86
2023-07-25T19:35:59.117Z,21.81
2023-07-25T19:38:28.447Z,21.85
2023-07-25T19:40:55.730Z,21.78
2023-07-25T19:43:22.812Z,21.66
2023-07-25T19:45:50.405Z,21.64
2023-07-25T19:48:20.171Z,21.68
2023-07-25T19:50:47.298Z,21.59
2023-07-25T19:53:15.637Z,21.75
2023-07-25T19:55:42.641Z,21.75
2023-07-25T19:58:09.754Z,21.40
2023-07-25T20:00:37.117Z,21.67
2023-07-25T20:03:04.395Z,21.59
2023-07-25T20:05:31.467Z,21.64
2023-07-25T20:07:58.423Z,21.54
2023-07-25T20:10:25.462Z,21.56
2023-07-25T20:12:52.948Z,21.61
2023-07-25T20:15:20.483Z,21.63
2023-07-25T20:17:48.997Z,21.55
2023-07-25T20:20:16.251Z,21.56
2023-07-25T20:22:43.547Z,21.75
2023-07-25T20:25:10.641Z,21.71
2023-07-25T20:27:38.007Z,21.68
2023-07-25T20:30:06.477Z,21.58
2023-07-25T20:32:33.753Z,21.57
2023-07-25T20:35:01.062Z,21.58
2023-07-25T20:37:28.250Z,21.44
2023-07-25T20:39:55.174Z,21.47
2023-07-25T20:42:22.586Z,21.45
2023-07-25T20:44:50.533Z,21.48
2023-07-25T20:47:17.475Z,21.40
2023-07-25T20:49:44.408Z,21.48
2023-07-25T20:52:11.493Z,21.57
2023-07-25T20:54:38.420Z,21.38
2023-07-25T20:57:05.702Z,21.37
2023-07-25T20:59:32.583Z,21.38
2023-07-25T21:01:59.514Z,21.52
2023-07-25T21:04:28.723Z,21.39
2023-07-25T21:06:56.301Z,21.24
2023-07-25T21:09:23.208Z,21.36
2023-07-25T21:11:50.150Z,21.28
2023-07-25T21:14:17.045Z,21.34
2023-07-25T21:16:44.012Z,21.34
2023-07-25T21:19:10.951Z,21.31
2023-07-25T21:21:37.913Z,21.31
2023-07-25T21:24:05.426Z,21.27
2023-07-25T21:26:32.631Z,21.32
2023-07-25T21:28:59.896Z,21.14
2023-07-25T21:31:26.944Z,21.21
2023-07-25T21:33:54.041Z,21.15
2023-07-25T21:36:21.062Z,21.25
2023-07-25T21:38:47.950Z,21.07
2023-07-25T21:41:14.918Z,21.15
2023-07-25T21:43:42.265Z,21.04
2023-07-25T21:46:09.618Z,21.14
2023-07-25T21:48:36.573Z,21.00
2023-07-25T21:51:03.669Z,21.06
2023-07-25T21:53:31.295Z,20.93
2023-07-25T21:55:59.240Z,20.95
2023-07-25T21:58:28.222Z,20.98
2023-07-25T22:00:59.377Z,21.00
2023-07-25T22:03:27.461Z,21.02
2023-07-25T22:05:55.168Z,20.84
2023-07-25T22:08:22.184Z,20.94
2023-07-25T22:10:49.179Z,20.86
2023-07-25T22:13:16.327Z,20.97
2023-07-25T22:15:43.438Z,20.88
2023-07-25T22:18:10.576Z,20.88
2023-07-25T22:20:50.624Z,20.85
2023-07-25T22:23:19.102Z,20.89
2023-07-25T22:25:46.019Z,20.80
2023-07-25T22:28:13.086Z,20.84
2023-07-25T22:30:40.070Z,20.95
2023-07-25T22:33:07.166Z,20.85
2023-07-25T22:35:35.029Z,20.91
2023-07-25T22:38:03.698Z,20.94
2023-07-25T22:40:30.894Z,20.96
2023-07-25T22:42:58.089Z,20.95
2023-07-25T22:45:26.825Z,20.95
2023-07-25T22:47:54.504Z,20.98
2023-07-25T22:50:21.548Z,20.98
2023-07-25T22:52:48.815Z,20.85
2023-07-25T22:55:17.925Z,20.95
2023-07-25T22:57:45.438Z,20.78
2023-07-25T23:00:12.867Z,20.88
2023-07-25T23:02:40.080Z,20.88
2023-07-25T23:05:07.566Z,20.81
2023-07-25T23:07:35.352Z,20.76
2023-07-25T23:10:02.820Z,20.70
2023-07-25T23:12:30.199Z,20.80
2023-07-25T23:14:57.307Z,20.64
2023-07-25T23:17:24.532Z,20.61
2023-07-25T23:19:51.649Z,20.58
2023-07-25T23:22:18.670Z,20.50
2023-07-25T23:24:45.745Z,20.55
2023-07-25T23:27:12.682Z,20.50
2023-07-25T23:29:39.586Z,20.44
2023-07-25T23:32:07.277Z,20.40
2023-07-25T23:34:48.489Z,20.36
2023-07-25T23:37:16.543Z,20.23
2023-07-25T23:39:43.877Z,20.25
2023-07-25T23:42:10.878Z,20.12
2023-07-25T23:44:37.896Z,20.14
2023-07-25T23:47:05.343Z,20.10
2023-07-25T23:49:34.477Z,20.10
2023-07-25T23:52:01.747Z,20.04
2023-07-25T23:54:28.724Z,19.96
2023-07-25T23:56:55.702Z,19.97
2023-07-25T23:59:22.649Z,19.97
